sensor_id;sensor_type;location;lat;lon;timestamp;pressure;altitude;pressure_sealevel;temperature;humidity
72560;BME280;62987;52.382;9.752;2023-03-21T00:00:42;100988.22;;;6.85;100.00
72560;BME280;62987;52.382;9.752;2023-03-21T00:03:10;100971.50;;;6.82;100.00
72560;BME280;62987;52.382;9.752;2023-03-21T00:05:39;100975.00;;;6.85;100.00
72560;BME280;62987;52.382;9.752;2023-03-21T00:08:09;100967.97;;;6.83;100.00
72560;BME280;62987;52.382;9.752;2023-03-21T00:10:37;100976.59;;;6.92;100.00
72560;BME280;62987;52.382;9.752;2023-03-21T00:13:09;100981.81;;;6.95;100.00
72560;BME280;62987;52.382;9.752;2023-03-21T00:15:39;100971.19;;;6.96;100.00
72560;BME280;62987;52.382;9.752;2023-03-21T00:18:31;100972.09;;;6.95;100.00
72560;BME280;62987;52.382;9.752;2023-03-21T00:21:03;100958.00;;;6.95;100.00
72560;BME280;62987;52.382;9.752;2023-03-21T00:23:54;100962.38;;;6.96;100.00
72560;BME280;62987;52.382;9.752;2023-03-21T00:26:22;100951.81;;;6.96;100.00
72560;BME280;62987;52.382;9.752;2023-03-21T00:28:50;100963.16;;;7.01;100.00
72560;BME280;62987;52.382;9.752;2023-03-21T00:31:19;100941.34;;;6.91;100.00
72560;BME280;62987;52.382;9.752;2023-03-21T00:33:48;100958.78;;;7.00;100.00
72560;BME280;62987;52.382;9.752;2023-03-21T00:36:17;100917.94;;;6.74;100.00
72560;BME280;62987;52.382;9.752;2023-03-21T00:38:45;100951.75;;;6.99;100.00
72560;BME280;62987;52.382;9.752;2023-03-21T00:41:14;100956.09;;;7.01;100.00
72560;BME280;62987;52.382;9.752;2023-03-21T00:44:02;100953.50;;;7.00;100.00
72560;BME280;62987;52.382;9.752;2023-03-21T00:46:30;100956.97;;;7.02;100.00
72560;BME280;62987;52.382;9.752;2023-03-21T00:49:12;100948.13;;;7.03;100.00
72560;BME280;62987;52.382;9.752;2023-03-21T00:51:40;100944.59;;;7.04;100.00
72560;BME280;62987;52.382;9.752;2023-03-21T00:54:10;100923.69;;;6.93;100.00
72560;BME280;62987;52.382;9.752;2023-03-21T00:56:41;100948.94;;;7.06;100.00
72560;BME280;62987;52.382;9.752;2023-03-21T00:59:09;100942.81;;;7.04;100.00
72560;BME280;62987;52.382;9.752;2023-03-21T01:01:37;100933.19;;;7.00;100.00
72560;BME280;62987;52.382;9.752;2023-03-21T01:04:06;100919.31;;;6.92;100.00
72560;BME280;62987;52.382;9.752;2023-03-21T01:06:40;100935.81;;;7.02;100.00
72560;BME280;62987;52.382;9.752;2023-03-21T01:09:12;100925.31;;;6.99;100.00
72560;BME280;62987;52.382;9.752;2023-03-21T01:11:42;100934.00;;;7.04;100.00
72560;BME280;62987;52.382;9.752;2023-03-21T01:14:11;100926.03;;;7.05;100.00
72560;BME280;62987;52.382;9.752;2023-03-21T01:16:49;100932.13;;;7.07;100.00
72560;BME280;62987;52.382;9.752;2023-03-21T01:19:18;100926.91;;;7.06;100.00
72560;BME280;62987;52.382;9.752;2023-03-21T01:21:57;100925.94;;;7.08;100.00
72560;BME280;62987;52.382;9.752;2023-03-21T01:24:25;100925.03;;;7.11;100.00
72560;BME280;62987;52.382;9.752;2023-03-21T01:26:54;100921.66;;;7.04;100.00
72560;BME280;62987;52.382;9.752;2023-03-21T01:29:22;100929.31;;;7.15;100.00
72560;BME280;62987;52.382;9.752;2023-03-21T01:31:50;100932.09;;;7.10;100.00
72560;BME280;62987;52.382;9.752;2023-03-21T01:34:18;100906.91;;;6.94;100.00
72560;BME280;62987;52.382;9.752;2023-03-21T01:36:46;100907.84;;;6.92;100.00
72560;BME280;62987;52.382;9.752;2023-03-21T01:39:18;100919.94;;;7.02;100.00
72560;BME280;62987;52.382;9.752;2023-03-21T01:41:48;100913.91;;;6.97;100.00
72560;BME280;62987;52.382;9.752;2023-03-21T01:44:27;100923.44;;;7.04;100.00
72560;BME280;62987;52.382;9.752;2023-03-21T01:46:55;100914.59;;;7.05;100.00
72560;BME280;62987;52.382;9.752;2023-03-21T01:49:46;100912.88;;;7.02;100.00
72560;BME280;62987;52.382;9.752;2023-03-21T01:52:20;100877.94;;;6.90;100.00
72560;BME280;62987;52.382;9.752;2023-03-21T01:55:06;100911.78;;;7.12;100.00
72560;BME280;62987;52.382;9.752;2023-03-21T01:57:56;100915.22;;;7.14;100.00
72560;BME280;62987;52.382;9.752;2023-03-21T02:01:02;100835.34;;;6.66;100.00
72560;BME280;62987;52.382;9.752;2023-03-21T02:03:46;100916.19;;;7.12;100.00
72560;BME280;62987;52.382;9.752;2023-03-21T02:06:41;100917.06;;;7.12;100.00
72560;BME280;62987;52.382;9.752;2023-03-21T02:09:25;100895.34;;;7.00;100.00
72560;BME280;62987;52.382;9.752;2023-03-21T02:11:55;100905.63;;;7.10;100.00
72560;BME280;62987;52.382;9.752;2023-03-21T02:14:29;100899.53;;;7.07;100.00
72560;BME280;62987;52.382;9.752;2023-03-21T02:17:08;100872.50;;;6.96;100.00
72560;BME280;62987;52.382;9.752;2023-03-21T02:20:09;100898.56;;;7.11;100.00
72560;BME280;62987;52.382;9.752;2023-03-21T02:23:06;100889.66;;;7.13;100.00
72560;BME280;62987;52.382;9.752;2023-03-21T02:26:24;100896.63;;;7.19;100.00
72560;BME280;62987;52.382;9.752;2023-03-21T02:29:29;100893.03;;;7.20;100.00
72560;BME280;62987;52.382;9.752;2023-03-21T02:32:07;100891.25;;;7.20;100.00
72560;BME280;62987;52.382;9.752;2023-03-21T02:35:10;100891.16;;;7.25;100.00
72560;BME280;62987;52.382;9.752;2023-03-21T02:37:47;100877.16;;;7.20;100.00
72560;BME280;62987;52.382;9.752;2023-03-21T02:40:31;100852.56;;;7.18;100.00
72560;BME280;62987;52.382;9.752;2023-03-21T02:43:04;100865.63;;;7.24;100.00
72560;BME280;62987;52.382;9.752;2023-03-21T02:45:51;100869.84;;;7.31;100.00
72560;BME280;62987;52.382;9.752;2023-03-21T02:48:22;100877.66;;;7.36;100.00
72560;BME280;62987;52.382;9.752;2023-03-21T02:51:08;100878.53;;;7.36;100.00
72560;BME280;62987;52.382;9.752;2023-03-21T02:53:44;100861.03;;;7.31;100.00
72560;BME280;62987;52.382;9.752;2023-03-21T02:56:22;100880.16;;;7.40;100.00
72560;BME280;62987;52.382;9.752;2023-03-21T02:58:54;100875.69;;;7.44;100.00
72560;BME280;62987;52.382;9.752;2023-03-21T03:01:22;100865.25;;;7.38;100.00
72560;BME280;62987;52.382;9.752;2023-03-21T03:03:51;100865.97;;;7.44;100.00
72560;BME280;62987;52.382;9.752;2023-03-21T03:06:23;100868.53;;;7.46;100.00
72560;BME280;62987;52.382;9.752;2023-03-21T03:08:57;100871.16;;;7.47;100.00
72560;BME280;62987;52.382;9.752;2023-03-21T03:11:33;100843.38;;;7.31;100.00
72560;BME280;62987;52.382;9.752;2023-03-21T03:14:14;100858.84;;;7.46;100.00
72560;BME280;62987;52.382;9.752;2023-03-21T03:17:16;100839.84;;;7.32;100.00
72560;BME280;62987;52.382;9.752;2023-03-21T03:19:58;100862.34;;;7.47;100.00
72560;BME280;62987;52.382;9.752;2023-03-21T03:22:47;100863.25;;;7.46;100.00
72560;BME280;62987;52.382;9.752;2023-03-21T03:25:25;100834.38;;;7.38;100.00
72560;BME280;62987;52.382;9.752;2023-03-21T03:28:11;100850.00;;;7.47;100.00
72560;BME280;62987;52.382;9.752;2023-03-21T03:30:42;100855.28;;;7.47;100.00
72560;BME280;62987;52.382;9.752;2023-03-21T03:33:35;100857.03;;;7.48;100.00
72560;BME280;62987;52.382;9.752;2023-03-21T03:36:08;100847.22;;;7.52;100.00
72560;BME280;62987;52.382;9.752;2023-03-21T03:38:56;100860.41;;;7.53;100.00
72560;BME280;62987;52.382;9.752;2023-03-21T03:41:27;100850.63;;;7.57;100.00
72560;BME280;62987;52.382;9.752;2023-03-21T03:44:02;100782.22;;;7.11;100.00
72560;BME280;62987;52.382;9.752;2023-03-21T03:46:38;100848.88;;;7.56;100.00
72560;BME280;62987;52.382;9.752;2023-03-21T03:49:12;100839.34;;;7.50;100.00
72560;BME280;62987;52.382;9.752;2023-03-21T03:51:49;100851.50;;;7.57;100.00
72560;BME280;62987;52.382;9.752;2023-03-21T03:54:29;100836.75;;;7.47;100.00
72560;BME280;62987;52.382;9.752;2023-03-21T03:57:02;100841.81;;;7.56;100.00
72560;BME280;62987;52.382;9.752;2023-03-21T03:59:33;100795.78;;;7.31;100.00
72560;BME280;62987;52.382;9.752;2023-03-21T04:02:21;100835.69;;;7.54;100.00
72560;BME280;62987;52.382;9.752;2023-03-21T04:04:49;100844.34;;;7.59;100.00
72560;BME280;62987;52.382;9.752;2023-03-21T04:07:20;100844.31;;;7.61;100.00
72560;BME280;62987;52.382;9.752;2023-03-21T04:09:51;100840.97;;;7.54;100.00
72560;BME280;62987;52.382;9.752;2023-03-21T04:12:21;100846.09;;;7.60;100.00
72560;BME280;62987;52.382;9.752;2023-03-21T04:15:09;100845.25;;;7.58;100.00
72560;BME280;62987;52.382;9.752;2023-03-21T04:17:42;100841.81;;;7.56;100.00
72560;BME280;62987;52.382;9.752;2023-03-21T04:20:12;100841.84;;;7.55;100.00
72560;BME280;62987;52.382;9.752;2023-03-21T04:22:52;100844.47;;;7.56;100.00
72560;BME280;62987;52.382;9.752;2023-03-21T04:25:22;100835.84;;;7.48;100.00
72560;BME280;62987;52.382;9.752;2023-03-21T04:28:01;100845.50;;;7.51;100.00
72560;BME280;62987;52.382;9.752;2023-03-21T04:30:45;100842.78;;;7.52;100.00
72560;BME280;62987;52.382;9.752;2023-03-21T04:33:30;100830.53;;;7.50;100.00
72560;BME280;62987;52.382;9.752;2023-03-21T04:36:05;100839.34;;;7.50;100.00
72560;BME280;62987;52.382;9.752;2023-03-21T04:38:35;100809.69;;;7.38;100.00
72560;BME280;62987;52.382;9.752;2023-03-21T04:41:04;100836.59;;;7.53;100.00
72560;BME280;62987;52.382;9.752;2023-03-21T04:43:33;100839.06;;;7.59;100.00
72560;BME280;62987;52.382;9.752;2023-03-21T04:46:01;100818.16;;;7.50;100.00
72560;BME280;62987;52.382;9.752;2023-03-21T04:48:29;100824.22;;;7.54;100.00
72560;BME280;62987;52.382;9.752;2023-03-21T04:50:59;100825.09;;;7.54;100.00
72560;BME280;62987;52.382;9.752;2023-03-21T04:53:27;100832.03;;;7.58;100.00
72560;BME280;62987;52.382;9.752;2023-03-21T04:55:56;100834.75;;;7.57;100.00
72560;BME280;62987;52.382;9.752;2023-03-21T04:58:24;100818.25;;;7.47;100.00
72560;BME280;62987;52.382;9.752;2023-03-21T05:00:53;100833.88;;;7.56;100.00
72560;BME280;62987;52.382;9.752;2023-03-21T05:03:23;100825.09;;;7.54;100.00
72560;BME280;62987;52.382;9.752;2023-03-21T05:05:50;100832.03;;;7.58;100.00
72560;BME280;62987;52.382;9.752;2023-03-21T05:08:19;100830.38;;;7.54;100.00
72560;BME280;62987;52.382;9.752;2023-03-21T05:10:46;100807.81;;;7.41;100.00
72560;BME280;62987;52.382;9.752;2023-03-21T05:13:14;100832.91;;;7.59;100.00
72560;BME280;62987;52.382;9.752;2023-03-21T05:15:42;100832.03;;;7.58;100.00
72560;BME280;62987;52.382;9.752;2023-03-21T05:18:12;100839.00;;;7.62;100.00
72560;BME280;62987;52.382;9.752;2023-03-21T05:20:57;100834.56;;;7.63;100.00
72560;BME280;62987;52.382;9.752;2023-03-21T05:23:25;100813.63;;;7.54;100.00
72560;BME280;62987;52.382;9.752;2023-03-21T05:25:57;100825.63;;;7.67;100.00
72560;BME280;62987;52.382;9.752;2023-03-21T05:28:38;100827.41;;;7.67;100.00
72560;BME280;62987;52.382;9.752;2023-03-21T05:31:07;100822.06;;;7.68;100.00
72560;BME280;62987;52.382;9.752;2023-03-21T05:33:36;100827.31;;;7.70;100.00
72560;BME280;62987;52.382;9.752;2023-03-21T05:36:05;100824.66;;;7.71;100.00
72560;BME280;62987;52.382;9.752;2023-03-21T05:38:33;100782.94;;;7.48;100.00
72560;BME280;62987;52.382;9.752;2023-03-21T05:41:02;100826.31;;;7.74;100.00
72560;BME280;62987;52.382;9.752;2023-03-21T05:43:31;100820.94;;;7.77;100.00
72560;BME280;62987;52.382;9.752;2023-03-21T05:45:59;100814.75;;;7.78;100.00
72560;BME280;62987;52.382;9.752;2023-03-21T05:48:29;100809.34;;;7.81;100.00
72560;BME280;62987;52.382;9.752;2023-03-21T05:51:12;100821.66;;;7.83;100.00
72560;BME280;62987;52.382;9.752;2023-03-21T05:53:40;100818.84;;;7.88;100.00
72560;BME280;62987;52.382;9.752;2023-03-21T05:56:09;100813.72;;;7.82;100.00
72560;BME280;62987;52.382;9.752;2023-03-21T05:58:43;100801.31;;;7.84;100.00
72560;BME280;62987;52.382;9.752;2023-03-21T06:01:11;100819.56;;;7.93;100.00
72560;BME280;62987;52.382;9.752;2023-03-21T06:03:44;100819.56;;;7.93;100.00
72560;BME280;62987;52.382;9.752;2023-03-21T06:06:17;100809.09;;;7.90;100.00
72560;BME280;62987;52.382;9.752;2023-03-21T06:08:53;100818.50;;;8.00;100.00
72560;BME280;62987;52.382;9.752;2023-03-21T06:11:24;100821.97;;;8.02;100.00
72560;BME280;62987;52.382;9.752;2023-03-21T06:14:13;100821.94;;;8.03;100.00
72560;BME280;62987;52.382;9.752;2023-03-21T06:16:42;100818.25;;;8.08;100.00
72560;BME280;62987;52.382;9.752;2023-03-21T06:19:11;100818.22;;;8.09;100.00
72560;BME280;62987;52.382;9.752;2023-03-21T06:22:03;100824.31;;;8.11;100.00
72560;BME280;62987;52.382;9.752;2023-03-21T06:24:33;100824.28;;;8.13;100.00
72560;BME280;62987;52.382;9.752;2023-03-21T06:27:01;100814.66;;;8.10;100.00
72560;BME280;62987;52.382;9.752;2023-03-21T06:29:41;100817.25;;;8.12;100.00
72560;BME280;62987;52.382;9.752;2023-03-21T06:32:09;100807.50;;;8.12;100.00
72560;BME280;62987;52.382;9.752;2023-03-21T06:34:37;100815.25;;;8.20;100.00
72560;BME280;62987;52.382;9.752;2023-03-21T06:37:07;100815.91;;;8.26;100.00
72560;BME280;62987;52.382;9.752;2023-03-21T06:39:35;100814.19;;;8.25;100.00
72560;BME280;62987;52.382;9.752;2023-03-21T06:42:03;100817.66;;;8.27;100.00
72560;BME280;62987;52.382;9.752;2023-03-21T06:44:34;100826.34;;;8.32;100.00
72560;BME280;62987;52.382;9.752;2023-03-21T06:47:08;100823.63;;;8.35;100.00
72560;BME280;62987;52.382;9.752;2023-03-21T06:49:38;100813.31;;;8.25;100.00
72560;BME280;62987;52.382;9.752;2023-03-21T06:52:10;100805.59;;;8.17;100.00
72560;BME280;62987;52.382;9.752;2023-03-21T06:54:45;100828.97;;;8.34;100.00
72560;BME280;62987;52.382;9.752;2023-03-21T06:57:17;100774.94;;;8.10;100.00
72560;BME280;62987;52.382;9.752;2023-03-21T06:59:48;100817.22;;;8.43;100.00
72560;BME280;62987;52.382;9.752;2023-03-21T07:02:19;100821.53;;;8.45;100.00
72560;BME280;62987;52.382;9.752;2023-03-21T07:04:58;100825.91;;;8.48;100.00
72560;BME280;62987;52.382;9.752;2023-03-21T07:07:29;100796.31;;;8.33;100.00
72560;BME280;62987;52.382;9.752;2023-03-21T07:09:59;100835.31;;;8.56;100.00
72560;BME280;62987;52.382;9.752;2023-03-21T07:12:38;100817.03;;;8.49;100.00
72560;BME280;62987;52.382;9.752;2023-03-21T07:15:19;100829.78;;;8.64;100.00
72560;BME280;62987;52.382;9.752;2023-03-21T07:17:48;100826.16;;;8.66;100.00
72560;BME280;62987;52.382;9.752;2023-03-21T07:20:16;100793.03;;;8.53;100.00
72560;BME280;62987;52.382;9.752;2023-03-21T07:22:46;100816.22;;;8.73;100.00
72560;BME280;62987;52.382;9.752;2023-03-21T07:25:13;100824.03;;;8.77;100.00
72560;BME280;62987;52.382;9.752;2023-03-21T07:27:42;100827.34;;;8.84;99.86
72560;BME280;62987;52.382;9.752;2023-03-21T07:30:12;100814.78;;;8.89;99.67
72560;BME280;62987;52.382;9.752;2023-03-21T07:32:41;100779.09;;;8.73;98.71
72560;BME280;62987;52.382;9.752;2023-03-21T07:35:13;100815.00;;;9.09;98.46
72560;BME280;62987;52.382;9.752;2023-03-21T07:37:43;100824.25;;;9.22;97.42
72560;BME280;62987;52.382;9.752;2023-03-21T07:40:18;100808.13;;;9.29;96.93
72560;BME280;62987;52.382;9.752;2023-03-21T07:42:48;100816.03;;;9.30;96.69
72560;BME280;62987;52.382;9.752;2023-03-21T07:45:27;100797.50;;;9.29;96.78
72560;BME280;62987;52.382;9.752;2023-03-21T07:47:55;100810.47;;;9.38;95.53
72560;BME280;62987;52.382;9.752;2023-03-21T07:50:23;100813.66;;;9.47;94.36
72560;BME280;62987;52.382;9.752;2023-03-21T07:52:52;100802.03;;;9.51;94.64
72560;BME280;62987;52.382;9.752;2023-03-21T07:55:21;100814.66;;;9.68;93.64
72560;BME280;62987;52.382;9.752;2023-03-21T07:57:50;100783.06;;;9.60;92.35
72560;BME280;62987;52.382;9.752;2023-03-21T08:00:22;100812.97;;;9.90;92.07
72560;BME280;62987;52.382;9.752;2023-03-21T08:02:51;100813.50;;;9.98;91.73
72560;BME280;62987;52.382;9.752;2023-03-21T08:05:26;100811.56;;;10.03;91.19
72560;BME280;62987;52.382;9.752;2023-03-21T08:07:54;100811.44;;;10.07;90.12
72560;BME280;62987;52.382;9.752;2023-03-21T08:10:24;100806.06;;;10.08;90.01
72560;BME280;62987;52.382;9.752;2023-03-21T08:12:52;100811.91;;;10.18;89.99
72560;BME280;62987;52.382;9.752;2023-03-21T08:15:20;100807.56;;;10.17;89.83
72560;BME280;62987;52.382;9.752;2023-03-21T08:17:48;100813.31;;;10.05;90.05
72560;BME280;62987;52.382;9.752;2023-03-21T08:20:17;100812.31;;;10.07;89.42
72560;BME280;62987;52.382;9.752;2023-03-21T08:22:47;100820.47;;;10.02;88.99
72560;BME280;62987;52.382;9.752;2023-03-21T08:25:17;100808.44;;;9.92;89.11
72560;BME280;62987;52.382;9.752;2023-03-21T08:27:47;100824.84;;;10.03;88.78
72560;BME280;62987;52.382;9.752;2023-03-21T08:30:18;100822.44;;;9.97;89.69
72560;BME280;62987;52.382;9.752;2023-03-21T08:32:46;100801.03;;;10.00;89.18
72560;BME280;62987;52.382;9.752;2023-03-21T08:35:16;100793.44;;;9.91;88.95
72560;BME280;62987;52.382;9.752;2023-03-21T08:37:45;100815.38;;;9.96;89.01
72560;BME280;62987;52.382;9.752;2023-03-21T08:40:15;100798.88;;;9.65;91.29
72560;BME280;62987;52.382;9.752;2023-03-21T08:42:44;100820.34;;;9.82;92.01
72560;BME280;62987;52.382;9.752;2023-03-21T08:45:15;100819.28;;;9.86;93.02
72560;BME280;62987;52.382;9.752;2023-03-21T08:47:44;100827.66;;;9.76;100.00
72560;BME280;62987;52.382;9.752;2023-03-21T08:50:15;100784.13;;;9.56;100.00
72560;BME280;62987;52.382;9.752;2023-03-21T08:52:43;100814.13;;;9.83;96.63
72560;BME280;62987;52.382;9.752;2023-03-21T08:55:13;100805.84;;;9.91;92.74
72560;BME280;62987;52.382;9.752;2023-03-21T08:57:41;100824.84;;;10.03;91.77
72560;BME280;62987;52.382;9.752;2023-03-21T09:00:11;100791.25;;;10.02;90.72
72560;BME280;62987;52.382;9.752;2023-03-21T09:02:43;100818.00;;;10.21;90.19
72560;BME280;62987;52.382;9.752;2023-03-21T09:05:11;100803.75;;;10.24;89.88
72560;BME280;62987;52.382;9.752;2023-03-21T09:07:40;100806.16;;;10.30;88.10
72560;BME280;62987;52.382;9.752;2023-03-21T09:10:10;100810.97;;;10.42;88.05
72560;BME280;62987;52.382;9.752;2023-03-21T09:12:49;100800.22;;;10.45;87.37
72560;BME280;62987;52.382;9.752;2023-03-21T09:15:20;100802.25;;;10.38;86.23
72560;BME280;62987;52.382;9.752;2023-03-21T09:17:51;100807.19;;;10.26;88.57
72560;BME280;62987;52.382;9.752;2023-03-21T09:20:22;100807.13;;;10.27;90.15
72560;BME280;62987;52.382;9.752;2023-03-21T09:22:57;100791.38;;;10.23;92.67
72560;BME280;62987;52.382;9.752;2023-03-21T09:25:27;100788.75;;;10.21;90.53
72560;BME280;62987;52.382;9.752;2023-03-21T09:27:56;100789.63;;;10.22;88.52
72560;BME280;62987;52.382;9.752;2023-03-21T09:30:25;100786.25;;;10.40;87.57
72560;BME280;62987;52.382;9.752;2023-03-21T09:32:55;100782.41;;;10.47;86.85
72560;BME280;62987;52.382;9.752;2023-03-21T09:35:23;100776.66;;;10.36;85.71
72560;BME280;62987;52.382;9.752;2023-03-21T09:37:53;100800.66;;;10.56;86.00
72560;BME280;62987;52.382;9.752;2023-03-21T09:40:47;100777.50;;;10.58;84.53
72560;BME280;62987;52.382;9.752;2023-03-21T09:43:33;100802.88;;;10.89;84.09
72560;BME280;62987;52.382;9.752;2023-03-21T09:46:09;100812.75;;;11.07;82.37
72560;BME280;62987;52.382;9.752;2023-03-21T09:48:47;100785.34;;;10.83;81.85
72560;BME280;62987;52.382;9.752;2023-03-21T09:51:26;100780.00;;;10.83;81.68
72560;BME280;62987;52.382;9.752;2023-03-21T09:53:58;100810.84;;;11.09;81.39
72560;BME280;62987;52.382;9.752;2023-03-21T09:56:29;100795.28;;;11.00;81.36
72560;BME280;62987;52.382;9.752;2023-03-21T09:58:59;100799.34;;;11.08;81.34
72560;BME280;62987;52.382;9.752;2023-03-21T10:01:29;100796.25;;;11.19;80.92
72560;BME280;62987;52.382;9.752;2023-03-21T10:04:03;100793.69;;;11.16;80.64
72560;BME280;62987;52.382;9.752;2023-03-21T10:06:33;100771.00;;;11.07;80.85
72560;BME280;62987;52.382;9.752;2023-03-21T10:09:10;100793.56;;;11.19;81.40
72560;BME280;62987;52.382;9.752;2023-03-21T10:11:43;100743.59;;;10.63;81.56
72560;BME280;62987;52.382;9.752;2023-03-21T10:14:16;100806.19;;;10.94;85.25
72560;BME280;62987;52.382;9.752;2023-03-21T10:16:47;100784.66;;;10.78;86.81
72560;BME280;62987;52.382;9.752;2023-03-21T10:19:18;100768.13;;;10.50;91.80
72560;BME280;62987;52.382;9.752;2023-03-21T10:21:48;100801.91;;;10.69;93.00
72560;BME280;62987;52.382;9.752;2023-03-21T10:24:28;100765.28;;;10.54;94.96
72560;BME280;62987;52.382;9.752;2023-03-21T10:26:59;100790.69;;;10.61;95.35
72560;BME280;62987;52.382;9.752;2023-03-21T10:29:30;100774.19;;;10.53;95.38
72560;BME280;62987;52.382;9.752;2023-03-21T10:32:03;100792.25;;;10.67;96.64
72560;BME280;62987;52.382;9.752;2023-03-21T10:34:36;100792.97;;;10.70;95.25
72560;BME280;62987;52.382;9.752;2023-03-21T10:37:07;100789.25;;;10.74;94.61
72560;BME280;62987;52.382;9.752;2023-03-21T10:39:37;100769.97;;;10.69;94.39
72560;BME280;62987;52.382;9.752;2023-03-21T10:42:16;100785.19;;;11.08;95.40
72560;BME280;62987;52.382;9.752;2023-03-21T10:44:46;100769.56;;;11.20;95.18
72560;BME280;62987;52.382;9.752;2023-03-21T10:47:19;100777.72;;;11.36;94.40
72560;BME280;62987;52.382;9.752;2023-03-21T10:49:49;100768.81;;;11.17;91.09
72560;BME280;62987;52.382;9.752;2023-03-21T10:52:36;100760.38;;;11.07;90.53
72560;BME280;62987;52.382;9.752;2023-03-21T10:55:16;100780.53;;;11.13;89.82
72560;BME280;62987;52.382;9.752;2023-03-21T10:57:45;100779.19;;;11.23;92.96
72560;BME280;62987;52.382;9.752;2023-03-21T11:00:19;100774.13;;;10.97;93.29
72560;BME280;62987;52.382;9.752;2023-03-21T11:02:49;100754.75;;;10.73;92.92
72560;BME280;62987;52.382;9.752;2023-03-21T11:05:21;100750.41;;;10.70;96.49
72560;BME280;62987;52.382;9.752;2023-03-21T11:08:02;100764.97;;;10.62;97.29
72560;BME280;62987;52.382;9.752;2023-03-21T11:10:34;100773.66;;;10.87;98.22
72560;BME280;62987;52.382;9.752;2023-03-21T11:13:06;100750.63;;;10.86;99.42
72560;BME280;62987;52.382;9.752;2023-03-21T11:15:51;100736.59;;;10.62;98.89
72560;BME280;62987;52.382;9.752;2023-03-21T11:18:21;100762.31;;;10.62;100.00
72560;BME280;62987;52.382;9.752;2023-03-21T11:20:53;100757.84;;;10.62;100.00
72560;BME280;62987;52.382;9.752;2023-03-21T11:23:26;100749.19;;;10.57;100.00
72560;BME280;62987;52.382;9.752;2023-03-21T11:25:58;100772.44;;;10.74;100.00
72560;BME280;62987;52.382;9.752;2023-03-21T11:28:35;100769.38;;;10.63;100.00
72560;BME280;62987;52.382;9.752;2023-03-21T11:31:05;100747.34;;;10.59;100.00
72560;BME280;62987;52.382;9.752;2023-03-21T11:33:36;100763.28;;;10.59;100.00
72560;BME280;62987;52.382;9.752;2023-03-21T11:36:25;100765.59;;;10.68;100.00
72560;BME280;62987;52.382;9.752;2023-03-21T11:38:56;100757.34;;;10.74;100.00
72560;BME280;62987;52.382;9.752;2023-03-21T11:41:28;100744.72;;;10.58;100.00
72560;BME280;62987;52.382;9.752;2023-03-21T11:43:57;100742.25;;;10.53;100.00
72560;BME280;62987;52.382;9.752;2023-03-21T11:46:26;100745.75;;;10.55;100.00
72560;BME280;62987;52.382;9.752;2023-03-21T11:48:56;100755.75;;;10.49;100.00
72560;BME280;62987;52.382;9.752;2023-03-21T11:51:30;100723.19;;;10.22;100.00
72560;BME280;62987;52.382;9.752;2023-03-21T11:54:04;100722.94;;;10.28;100.00
72560;BME280;62987;52.382;9.752;2023-03-21T11:56:41;100747.84;;;10.47;100.00
72560;BME280;62987;52.382;9.752;2023-03-21T11:59:31;100742.63;;;10.44;100.00
72560;BME280;62987;52.382;9.752;2023-03-21T12:02:25;100749.81;;;10.42;100.00
72560;BME280;62987;52.382;9.752;2023-03-21T12:05:04;100739.56;;;10.33;100.00
72560;BME280;62987;52.382;9.752;2023-03-21T12:07:45;100742.41;;;10.28;100.00
72560;BME280;62987;52.382;9.752;2023-03-21T12:10:32;100728.81;;;10.36;100.00
72560;BME280;62987;52.382;9.752;2023-03-21T12:13:13;100719.22;;;10.32;100.00
72560;BME280;62987;52.382;9.752;2023-03-21T12:15:49;100709.88;;;10.22;100.00
72560;BME280;62987;52.382;9.752;2023-03-21T12:18:34;100725.03;;;10.41;100.00
72560;BME280;62987;52.382;9.752;2023-03-21T12:21:07;100698.75;;;10.34;100.00
72560;BME280;62987;52.382;9.752;2023-03-21T12:23:47;100727.22;;;10.52;100.00
72560;BME280;62987;52.382;9.752;2023-03-21T12:26:23;100704.53;;;10.43;100.00
72560;BME280;62987;52.382;9.752;2023-03-21T12:29:04;100700.78;;;10.49;100.00
72560;BME280;62987;52.382;9.752;2023-03-21T12:31:42;100702.34;;;10.33;100.00
72560;BME280;62987;52.382;9.752;2023-03-21T12:34:22;100713.63;;;10.38;100.00
72560;BME280;62987;52.382;9.752;2023-03-21T12:37:02;100711.94;;;10.37;100.00
72560;BME280;62987;52.382;9.752;2023-03-21T12:39:39;100696.03;;;10.35;100.00
72560;BME280;62987;52.382;9.752;2023-03-21T12:42:40;100710.88;;;10.41;100.00
72560;BME280;62987;52.382;9.752;2023-03-21T12:45:17;100683.50;;;10.17;100.00
72560;BME280;62987;52.382;9.752;2023-03-21T12:47:49;100678.91;;;10.21;100.00
72560;BME280;62987;52.382;9.752;2023-03-21T12:50:21;100680.59;;;10.23;100.00
72560;BME280;62987;52.382;9.752;2023-03-21T12:52:54;100664.06;;;10.15;100.00
72560;BME280;62987;52.382;9.752;2023-03-21T12:55:29;100647.88;;;10.21;100.00
72560;BME280;62987;52.382;9.752;2023-03-21T12:58:01;100689.28;;;10.49;100.00
72560;BME280;62987;52.382;9.752;2023-03-21T13:00:35;100693.31;;;10.57;100.00
72560;BME280;62987;52.382;9.752;2023-03-21T13:03:10;100666.38;;;10.45;100.00
72560;BME280;62987;52.382;9.752;2023-03-21T13:05:42;100680.91;;;10.58;100.00
72560;BME280;62987;52.382;9.752;2023-03-21T13:08:18;100662.75;;;10.47;100.00
72560;BME280;62987;52.382;9.752;2023-03-21T13:10:51;100631.78;;;10.24;100.00
72560;BME280;62987;52.382;9.752;2023-03-21T13:13:26;100670.97;;;10.41;100.00
72560;BME280;62987;52.382;9.752;2023-03-21T13:16:03;100662.09;;;10.42;100.00
72560;BME280;62987;52.382;9.752;2023-03-21T13:18:43;100678.34;;;10.56;100.00
72560;BME280;62987;52.382;9.752;2023-03-21T13:21:23;100656.63;;;10.45;100.00
72560;BME280;62987;52.382;9.752;2023-03-21T13:23:59;100658.91;;;10.54;100.00
72560;BME280;62987;52.382;9.752;2023-03-21T13:26:36;100653.69;;;10.51;100.00